Time;durP1;ratioP1;P1;durP2;ratioP2;P2;SDS_P1;SDS_P2;PMS_P1;PMS_P2;Temp;Humidity;BMP_temperature;BMP_pressure;BME280_temperature;BME280_humidity;BME280_pressure;Samples;Min_cycle;Max_cycle;Signal;HPM_P1;HPM_P2
2022/01/18 06:14:17;;;;;;;9.13;2.13;;;;;;;-3.43;80.58;101697.81;5046258;27;106024;-59
2022/01/18 06:16:42;;;;;;;53.25;25.85;;;;;;;-3.37;81.32;101668.16;5046006;27;106071;-60
2022/01/18 06:19:08;;;;;;;9.73;3.63;;;;;;;-3.22;81.17;101670.31;5044866;27;106168;-60
2022/01/18 06:21:33;;;;;;;11.20;4.00;;;;;;;-3.04;82.57;101678.47;5044789;27;106497;-61
2022/01/18 06:23:58;;;;;;;18.55;4.30;;;;;;;-2.84;82.41;101680.47;5044610;27;106038;-61
2022/01/18 06:26:24;;;;;;;18.13;4.15;;;;;;;-2.66;82.26;101676.44;5045725;27;106451;-73
2022/01/18 06:28:49;;;;;;;21.83;3.83;;;;;;;-2.49;82.84;101681.13;5045182;27;106153;-65
2022/01/18 06:31:15;;;;;;;17.92;3.08;;;;;;;-2.33;82.69;101689.31;5044438;27;105868;-66
2022/01/18 06:33:40;;;;;;;11.25;3.70;;;;;;;-2.18;82.92;101686.19;5040365;27;105974;-63
2022/01/18 06:36:06;;;;;;;12.15;4.45;;;;;;;-2.06;82.72;101670.09;5045604;27;105844;-64
2022/01/18 06:38:32;;;;;;;15.25;4.80;;;;;;;-1.94;82.44;101688.88;5044658;27;106223;-61
2022/01/18 06:40:57;;;;;;;9.00;2.70;;;;;;;-1.79;82.23;101696.19;5044526;27;105873;-59
2022/01/18 06:43:22;;;;;;;11.90;4.70;;;;;;;-1.70;82.82;101708.91;5044497;27;106008;-64
2022/01/18 06:45:48;;;;;;;21.15;4.55;;;;;;;-1.61;82.06;101701.69;5045626;27;106010;-60
2022/01/18 06:48:13;;;;;;;16.25;5.45;;;;;;;-1.52;82.35;101708.31;5044734;27;106115;-61
2022/01/18 06:50:39;;;;;;;13.57;4.15;;;;;;;-1.44;82.69;101709.75;5044326;27;105903;-62
2022/01/18 06:53:05;;;;;;;21.80;4.28;;;;;;;-1.38;82.05;101712.16;5044415;27;105814;-62
2022/01/18 06:55:30;;;;;;;11.45;3.83;;;;;;;-1.31;82.43;101722.38;5045362;27;106204;-63
2022/01/18 06:57:56;;;;;;;20.02;5.30;;;;;;;-1.27;82.37;101718.72;5044805;27;106287;-62
2022/01/18 07:00:21;;;;;;;15.00;4.07;;;;;;;-1.21;81.94;101721.13;5044392;27;107013;-62
2022/01/18 07:02:47;;;;;;;20.60;6.07;;;;;;;-1.17;81.90;101724.50;5043800;27;105806;-62
2022/01/18 07:05:12;;;;;;;24.67;5.47;;;;;;;-1.11;82.16;101737.34;5045094;27;105912;-66
2022/01/18 07:07:39;;;;;;;15.32;6.75;;;;;;;-1.06;82.23;101746.72;5044631;27;105847;-64
2022/01/18 07:10:05;;;;;;;18.60;6.80;;;;;;;-1.02;81.82;101753.53;5043968;27;107342;-64
2022/01/18 07:12:34;;;;;;;19.02;5.68;;;;;;;-0.95;81.75;101748.94;5043424;27;106062;-65
2022/01/18 07:14:59;;;;;;;15.93;4.68;;;;;;;-0.90;82.11;101754.00;5043163;27;105875;-66
2022/01/18 07:17:25;;;;;;;22.80;4.20;;;;;;;-0.85;81.67;101754.66;5044328;27;105929;-67
2022/01/18 07:19:50;;;;;;;13.50;4.60;;;;;;;-0.84;81.89;101772.09;5044157;27;106163;-66
2022/01/18 07:22:16;;;;;;;14.30;4.07;;;;;;;-0.81;81.80;101766.72;5043779;27;105831;-66
2022/01/18 07:24:43;;;;;;;14.40;5.05;;;;;;;-0.79;81.96;101784.97;5027974;27;105949;-65
2022/01/18 07:27:11;;;;;;;13.48;4.82;;;;;;;-0.76;81.48;101775.25;4997706;28;106322;-69
2022/01/18 07:29:37;;;;;;;14.93;6.03;;;;;;;-0.72;81.52;101776.00;4990234;28;106775;-66
2022/01/18 07:32:04;;;;;;;23.00;5.28;;;;;;;-0.68;81.92;101783.69;4990222;28;105771;-63
2022/01/18 07:34:31;;;;;;;12.25;5.30;;;;;;;-0.64;81.68;101784.44;4993805;28;106037;-62
2022/01/18 07:36:57;;;;;;;10.95;3.78;;;;;;;-0.59;81.04;101787.72;4998702;28;106286;-62
2022/01/18 07:39:22;;;;;;;20.05;5.30;;;;;;;-0.54;81.20;101780.53;5000223;28;105849;-63
2022/01/18 07:41:47;;;;;;;12.35;4.35;;;;;;;-0.52;81.29;101780.47;5000266;28;106463;-63
2022/01/18 07:44:13;;;;;;;13.20;4.63;;;;;;;-0.47;81.64;101790.78;4999569;28;106238;-62
2022/01/18 07:46:38;;;;;;;6.38;2.38;;;;;;;-0.42;81.14;101794.91;5000879;28;106200;-65
2022/01/18 07:49:03;;;;;;;11.05;4.80;;;;;;;-0.40;81.04;101803.53;4999364;28;109392;-63
2022/01/18 07:51:29;;;;;;;17.15;4.43;;;;;;;-0.35;81.22;101806.84;4998982;28;105996;-60
2022/01/18 07:53:54;;;;;;;15.77;5.13;;;;;;;-0.26;81.22;101802.16;5001512;28;106077;-65
2022/01/18 07:56:20;;;;;;;12.70;5.60;;;;;;;-0.23;80.90;101797.66;5003859;28;106071;-62
2022/01/18 07:58:45;;;;;;;17.88;4.80;;;;;;;-0.23;81.01;101805.53;5008106;28;105933;-63
2022/01/18 08:01:10;;;;;;;10.40;4.95;;;;;;;-0.19;80.85;101814.13;5009231;28;106577;-62
2022/01/18 08:03:36;;;;;;;24.15;7.30;;;;;;;-0.12;80.92;101807.72;5008891;28;106013;-66
2022/01/18 08:06:01;;;;;;;10.73;3.45;;;;;;;-0.04;80.86;101805.63;5010406;28;106117;-66
2022/01/18 08:08:27;;;;;;;14.52;5.40;;;;;;;0.00;80.98;101811.63;5009547;28;108738;-67
2022/01/18 08:10:53;;;;;;;9.77;5.30;;;;;;;0.05;80.54;101819.28;5009977;28;106011;-67
2022/01/18 08:13:23;;;;;;;14.57;5.30;;;;;;;0.11;80.56;101827.75;5010414;28;105939;-63
2022/01/18 08:15:57;;;;;;;16.50;6.20;;;;;;;0.13;80.42;101832.94;5009801;28;106027;-63
2022/01/18 08:18:23;;;;;;;17.25;7.00;;;;;;;0.22;80.62;101832.56;5009430;28;105989;-63
2022/01/18 08:20:48;;;;;;;17.35;4.97;;;;;;;0.28;80.50;101832.28;5009415;28;105966;-63
2022/01/18 08:23:14;;;;;;;15.80;5.97;;;;;;;0.33;80.50;101839.97;5010514;28;105878;-63
2022/01/18 08:25:39;;;;;;;11.77;4.88;;;;;;;0.36;80.27;101824.13;5009106;28;105838;-67
2022/01/18 08:28:05;;;;;;;14.60;5.18;;;;;;;0.35;79.78;101832.88;5009187;28;105906;-64
2022/01/18 08:30:30;;;;;;;16.73;5.13;;;;;;;0.44;80.15;101839.53;5009436;28;105900;-67
2022/01/18 08:32:56;;;;;;;10.02;4.70;;;;;;;0.44;80.01;101839.53;5010103;28;105962;-69
2022/01/18 08:35:23;;;;;;;14.77;4.53;;;;;;;0.43;79.92;101835.22;5008838;28;106265;-67
2022/01/18 08:37:49;;;;;;;21.77;5.75;;;;;;;0.44;79.70;101855.28;5008723;28;106095;-64
2022/01/18 08:40:14;;;;;;;11.13;4.40;;;;;;;0.43;79.66;101857.03;5008852;28;106205;-65
2022/01/18 08:42:40;;;;;;;12.23;4.70;;;;;;;0.43;79.75;101851.78;5009892;28;105827;-64
2022/01/18 08:45:07;;;;;;;9.60;3.60;;;;;;;0.46;79.58;101856.03;5009181;28;105886;-64
2022/01/18 08:47:32;;;;;;;13.30;4.75;;;;;;;0.47;79.56;101850.72;5008612;28;107308;-64
2022/01/18 08:49:58;;;;;;;24.98;6.45;;;;;;;0.47;79.15;101858.59;5008995;28;106140;-64
2022/01/18 08:52:23;;;;;;;8.15;3.70;;;;;;;0.50;79.26;101857.63;5009828;28;106177;-62
2022/01/18 08:54:48;;;;;;;10.07;3.65;;;;;;;0.58;79.37;101871.25;5009477;28;106456;-63
2022/01/18 08:57:15;;;;;;;15.07;5.10;;;;;;;0.64;79.35;101871.03;5008529;28;106528;-63
2022/01/18 08:59:43;;;;;;;10.80;4.68;;;;;;;0.66;79.41;101879.66;5008892;28;106992;-65
2022/01/18 09:02:10;;;;;;;10.23;4.15;;;;;;;0.69;78.84;101877.84;5009414;28;105838;-65
2022/01/18 09:04:36;;;;;;;8.40;3.30;;;;;;;0.73;78.93;101872.41;5008986;28;105816;-63
2022/01/18 09:07:07;;;;;;;17.08;5.32;;;;;;;0.74;78.82;101874.09;5008530;28;105754;-64
2022/01/18 09:09:32;;;;;;;;;;;;;;;0.83;78.95;101883.34;5009162;28;106531;-63
2022/01/18 09:11:58;;;;;;;10.15;3.88;;;;;;;0.87;79.06;101884.91;5008683;28;105837;-65
2022/01/18 09:14:23;;;;;;;17.55;5.07;;;;;;;0.89;78.90;101884.84;5008642;28;106043;-63
2022/01/18 09:16:49;;;;;;;13.40;4.35;;;;;;;0.93;78.72;101896.91;5008292;28;105901;-63
2022/01/18 09:19:16;;;;;;;15.27;5.40;;;;;;;0.95;78.67;101898.56;5008117;28;105966;-63
2022/01/18 09:21:42;;;;;;;14.90;5.07;;;;;;;0.98;78.52;101895.78;5009406;28;105914;-63
2022/01/18 09:24:07;;;;;;;14.07;5.80;;;;;;;0.97;78.61;101914.25;5008866;28;106004;-63
2022/01/18 09:26:32;;;;;;;13.95;6.07;;;;;;;1.00;78.49;101908.88;5008449;28;105990;-66
2022/01/18 09:28:58;;;;;;;15.88;5.20;;;;;;;1.14;78.68;101917.00;5008293;28;106001;-66
2022/01/18 09:31:23;;;;;;;10.93;4.78;;;;;;;1.25;78.68;101913.91;5009056;28;105996;-65
2022/01/18 09:33:49;;;;;;;13.30;4.78;;;;;;;1.25;78.17;101919.16;5008685;28;106504;-66
2022/01/18 09:36:14;;;;;;;9.57;4.60;;;;;;;1.30;78.24;101909.31;5008249;28;106931;-64
2022/01/18 09:38:39;;;;;;;9.23;4.50;;;;;;;1.48;78.32;101919.91;5008663;28;106057;-63
2022/01/18 09:41:10;;;;;;;17.05;5.78;;;;;;;1.80;78.66;101930.72;5008933;28;106089;-64
2022/01/18 09:43:38;;;;;;;14.63;5.00;;;;;;;1.97;78.25;101928.19;5009138;28;105994;-67
2022/01/18 09:46:03;;;;;;;16.70;5.90;;;;;;;2.16;77.81;101922.91;5008056;28;106259;-67
2022/01/18 09:48:29;;;;;;;14.25;5.03;;;;;;;2.43;77.49;101919.84;5007855;28;106312;-68
2022/01/18 09:50:55;;;;;;;18.35;5.55;;;;;;;2.54;76.93;101917.56;5009078;28;106132;-63
2022/01/18 09:53:20;;;;;;;13.18;5.45;;;;;;;3.00;77.32;101924.91;5008563;28;106193;-62
2022/01/18 09:55:48;;;;;;;16.63;6.30;;;;;;;3.82;77.43;101933.81;5008309;28;105953;-68
2022/01/18 09:58:14;;;;;;;14.50;5.25;;;;;;;3.77;75.45;101940.25;5007789;28;105882;-65
2022/01/18 10:00:42;;;;;;;14.98;5.25;;;;;;;3.54;74.72;101945.84;5008468;28;106099;-67
2022/01/18 10:03:23;;;;;;;15.95;5.82;;;;;;;3.62;75.07;101934.88;4994009;28;106301;-64
2022/01/18 10:05:49;;;;;;;16.17;6.13;;;;;;;4.14;75.20;101940.88;4996638;28;106732;-63
2022/01/18 10:08:16;;;;;;;15.13;5.85;;;;;;;4.29;74.57;101940.03;4995883;28;106167;-63
2022/01/18 10:10:44;;;;;;;13.15;5.00;;;;;;;5.16;75.38;101932.41;5000090;28;105862;-63
2022/01/18 10:13:35;;;;;;;24.55;5.32;;;;;;;4.86;72.61;101931.47;4996856;28;106106;-63
2022/01/18 10:16:06;;;;;;;13.15;5.30;;;;;;;4.56;72.22;101931.47;4987570;28;107997;-63
2022/01/18 10:18:45;;;;;;;15.85;4.60;;;;;;;4.31;71.83;101951.34;4987762;28;106000;-64
2022/01/18 10:21:14;;;;;;;13.73;5.00;;;;;;;4.16;72.25;101958.31;4988581;28;105885;-63
2022/01/18 10:23:48;;;;;;;12.75;5.13;;;;;;;4.15;72.30;101955.78;4987817;28;106095;-67
2022/01/18 10:26:16;;;;;;;14.20;4.80;;;;;;;4.09;73.30;101956.09;4987591;28;105984;-66
2022/01/18 10:28:41;;;;;;;14.95;6.18;;;;;;;4.09;73.14;101949.06;4987020;28;106256;-66
2022/01/18 10:31:41;;;;;;;18.58;4.97;;;;;;;4.07;72.66;101951.78;4988353;28;105850;-65
2022/01/18 10:37:09;;;;;;;13.23;4.65;;;;;;;3.77;71.28;101962.19;4984328;28;105779;-70
2022/01/18 10:39:37;;;;;;;12.98;5.13;;;;;;;4.20;73.34;101974.84;4986967;28;105980;-68
2022/01/18 10:42:18;;;;;;;11.85;5.32;;;;;;;4.23;72.76;101966.75;4988088;28;105939;-66
2022/01/18 10:44:45;;;;;;;;;;;;;;;4.56;72.55;101968.44;4988026;28;105863;-71
2022/01/18 10:47:11;;;;;;;17.40;5.22;;;;;;;4.66;71.90;101961.69;4987448;28;105871;-63
2022/01/18 10:49:40;;;;;;;14.70;5.45;;;;;;;4.81;71.26;101959.09;4987196;28;106491;-70
2022/01/18 10:52:09;;;;;;;13.25;4.78;;;;;;;5.50;71.64;101968.19;4987752;28;105887;-68
2022/01/18 10:54:39;;;;;;;11.02;4.90;;;;;;;5.33;70.35;101971.88;4987003;28;106123;-64
2022/01/18 10:57:06;;;;;;;16.48;4.45;;;;;;;5.21;70.25;101967.34;4986902;28;107976;-66
2022/01/18 10:59:33;;;;;;;20.42;6.20;;;;;;;5.26;70.02;101975.81;4988179;28;106071;-65
2022/01/18 11:02:15;;;;;;;18.15;4.70;;;;;;;7.02;71.83;101970.03;4990775;28;106557;-66
2022/01/18 11:04:44;;;;;;;13.68;4.93;;;;;;;9.37;71.02;101963.81;4990723;28;106210;-66
2022/01/18 11:07:11;;;;;;;17.83;4.72;;;;;;;9.48;66.06;101965.63;4990072;28;106048;-69
2022/01/18 11:09:37;;;;;;;19.30;5.45;;;;;;;9.47;63.24;101964.81;4990712;28;106120;-70
2022/01/18 11:12:04;;;;;;;15.27;5.00;;;;;;;8.76;63.50;101969.31;4994448;28;105979;-68
2022/01/18 11:14:31;;;;;;;15.52;4.45;;;;;;;8.37;64.36;101964.16;5009957;28;106207;-67
2022/01/18 11:16:58;;;;;;;17.33;4.55;;;;;;;8.12;64.56;101971.25;4996901;28;107292;-65
2022/01/18 11:21:52;;;;;;;14.80;5.32;;;;;;;8.17;63.62;101972.72;4999202;28;105901;-62
2022/01/18 11:24:19;;;;;;;11.55;5.32;;;;;;;8.04;63.89;101970.13;4999445;28;107041;-69
2022/01/18 11:26:45;;;;;;;16.85;4.90;;;;;;;7.96;63.71;101957.38;4997766;28;106774;-66
2022/01/18 11:29:15;;;;;;;15.18;5.03;;;;;;;7.52;62.80;101958.72;4998195;28;106555;-67
2022/01/18 11:31:44;;;;;;;14.23;5.88;;;;;;;7.23;62.71;101966.88;4999681;28;106096;-69
2022/01/18 11:34:13;;;;;;;15.52;5.60;;;;;;;6.86;63.21;101961.41;5000414;28;106243;-74
2022/01/18 11:36:44;;;;;;;23.55;11.00;;;;;;;6.54;63.52;101953.81;4998911;28;106339;-61
2022/01/18 11:39:11;;;;;;;15.02;5.25;;;;;;;6.29;63.60;101951.88;4997973;28;106327;-72
2022/01/18 11:41:37;;;;;;;16.73;5.68;;;;;;;6.54;64.31;101956.47;4990729;28;106484;-63
2022/01/18 11:44:27;;;;;;;16.67;4.82;;;;;;;7.59;63.92;101952.03;4989931;28;106050;-69
2022/01/18 11:46:55;;;;;;;15.35;4.40;;;;;;;8.13;62.08;101962.34;4989680;28;106175;-67
2022/01/18 11:49:24;;;;;;;12.63;4.45;;;;;;;8.81;62.77;101959.19;4989763;28;106840;-69
2022/01/18 11:51:57;;;;;;;9.68;4.60;;;;;;;9.29;61.62;101966.22;4990526;28;106011;-69
2022/01/18 11:57:01;;;;;;;13.30;5.25;;;;;;;10.63;59.87;101968.91;4986928;28;105938;-71
2022/01/18 11:59:36;;;;;;;14.07;5.55;;;;;;;9.91;57.44;101956.94;4989679;28;106056;-72
2022/01/18 12:02:05;;;;;;;12.35;4.93;;;;;;;9.03;57.13;101965.56;4990677;28;106273;-68
2022/01/18 12:04:40;;;;;;;15.10;5.65;;;;;;;10.44;59.81;101963.38;4989913;28;106126;-71
2022/01/18 12:07:10;;;;;;;9.38;4.18;;;;;;;10.57;56.79;101971.25;4989646;28;106012;-68
2022/01/18 12:09:38;;;;;;;10.47;3.70;;;;;;;11.80;57.52;101966.13;4989522;28;106065;-67
2022/01/18 12:12:35;;;;;;;13.82;4.35;;;;;;;12.88;55.14;101962.81;4989434;28;105925;-72
2022/01/18 12:15:01;;;;;;;14.32;4.45;;;;;;;12.79;54.03;101948.44;4989812;28;106214;-67
2022/01/18 12:17:26;;;;;;;17.65;6.53;;;;;;;12.44;53.04;101950.69;4989208;28;106081;-66
2022/01/18 12:19:52;;;;;;;12.10;5.03;;;;;;;13.69;52.78;101951.63;4991822;28;105934;-69
2022/01/18 12:22:37;;;;;;;14.38;5.38;;;;;;;14.53;51.86;101961.28;5000169;28;106021;-70
2022/01/18 12:25:28;;;;;;;9.85;3.72;;;;;;;15.04;48.74;101961.56;4988552;28;106016;-71
2022/01/18 12:27:55;;;;;;;9.68;4.82;;;;;;;16.68;49.30;101957.06;4989046;28;107243;-71
2022/01/18 12:31:34;;;;;;;10.13;4.63;;;;;;;17.78;46.77;101943.06;4989205;28;105890;-70
2022/01/18 12:33:20;;;;;;;13.55;5.10;;;;;;;17.40;43.81;101945.53;4983953;28;106380;-69
2022/01/18 12:35:46;;;;;;;17.02;5.07;;;;;;;16.25;43.49;101959.84;4989235;28;105724;-66
2022/01/18 12:38:22;;;;;;;12.57;5.30;;;;;;;15.24;43.39;101956.03;4989251;28;106556;-72
2022/01/18 12:40:47;;;;;;;14.98;5.07;;;;;;;14.47;42.75;101948.47;4989109;28;105865;-67
2022/01/18 12:45:40;;;;;;;14.52;4.57;;;;;;;11.41;43.49;101957.91;4986526;28;105840;-69
2022/01/18 12:48:09;;;;;;;12.82;4.47;;;;;;;10.77;45.90;101959.78;4988953;28;106762;-72
2022/01/18 12:50:37;;;;;;;13.02;5.20;;;;;;;11.38;46.17;101958.19;4988787;28;106370;-76
2022/01/18 12:53:06;;;;;;;10.82;5.03;;;;;;;10.74;45.09;101976.00;4989973;28;105846;-71
2022/01/18 12:55:45;;;;;;;13.40;4.30;;;;;;;10.58;45.89;101971.09;4989022;28;106360;-67
2022/01/18 12:58:10;;;;;;;11.07;4.00;;;;;;;10.66;45.81;101965.13;4995421;28;106232;-64
2022/01/18 13:00:42;;;;;;;15.15;5.63;;;;;;;9.95;45.92;101965.50;5007299;28;106159;-71
2022/01/18 13:03:08;;;;;;;12.70;4.82;;;;;;;10.33;47.20;101973.09;4989582;28;105909;-68
2022/01/18 13:05:41;;;;;;;14.68;4.97;;;;;;;11.17;45.78;101961.72;4989125;28;105714;-73
2022/01/18 13:08:08;;;;;;;14.50;5.28;;;;;;;12.18;46.07;101972.59;4988859;28;106273;-70
2022/01/18 13:10:39;;;;;;;11.60;5.22;;;;;;;11.98;44.67;101970.84;4988783;28;105805;-65
2022/01/18 13:13:06;;;;;;;19.48;5.88;;;;;;;11.06;43.68;101975.13;4989206;28;106180;-62
2022/01/18 13:15:48;;;;;;;13.75;5.72;;;;;;;10.57;44.43;101985.41;4988411;28;106576;-63
2022/01/18 13:26:38;;;;;;;17.90;5.25;;;;;;;14.25;42.15;101973.91;4976307;28;106218;-68
2022/01/18 13:29:16;;;;;;;15.75;5.65;;;;;;;15.62;38.44;101974.53;4987925;28;105922;-67
2022/01/18 13:31:43;;;;;;;14.88;5.18;;;;;;;16.74;38.16;101983.28;4988180;28;105883;-66
2022/01/18 13:34:14;;;;;;;13.25;5.30;;;;;;;17.85;36.95;101986.31;4989063;28;106273;-65
2022/01/18 13:36:49;;;;;;;;;;;;;;;18.07;33.72;101973.94;4988619;28;105897;-67
2022/01/18 13:39:31;;;;;;;14.43;4.53;;;;;;;15.97;34.26;101980.78;4987942;28;106276;-71
2022/01/18 13:42:01;;;;;;;13.77;4.75;;;;;;;13.74;36.77;101991.34;5014240;28;105889;-65
2022/01/18 13:44:28;;;;;;;14.32;5.60;;;;;;;12.57;39.01;101997.69;5028585;27;107401;-64
2022/01/18 13:46:54;;;;;;;14.77;5.00;;;;;;;11.79;40.13;101998.28;5028338;27;106205;-65
2022/01/18 13:49:24;;;;;;;10.05;5.00;;;;;;;13.70;40.50;101988.16;5027720;27;106552;-68
2022/01/18 13:52:00;;;;;;;14.75;5.55;;;;;;;15.61;38.23;101980.88;5027592;27;106187;-68
2022/01/18 13:54:28;;;;;;;13.60;5.50;;;;;;;16.50;35.94;101976.88;5028224;27;106480;-65
